EDXW

Westerland Sylt Airport

Westerland, Germany
METAR EDXW 181520Z 34012KT CAVOK 12/06 Q1025
Observed Flight Rules
Oct-18 @ 15:20 UTC (37 minutes ago) Visual Flight Rules
Wind Visibility Clouds
340° at 12 knots 10,000+ meters
  • Clear skies
Temperatures Readings
Current 12°C / 54°F
Dewpoint 6°C / 43°F
Humidity 67%
Altimeter 30.27" Hg
Pressure 1025 hPa
Elevation 20
METAR EDXW 181520Z 34012KT CAVOK 12/06 Q1025
Observed Flight Rules
Oct-18 @ 15:20 UTC
(37 minutes ago)
VFR
Wind Visibility
340° at 12 knots 10,000+ meters
Clouds
  • Clear skies
Temperature Dewpoint
12°C / 54°F 6°C / 43°F
Humidity Altimeter Pressure
67% 30.27" Hg 1025 hPa